WetterOnline ( https://www.wetteronline.ch )

Wetter aktuell Görlitz

Aktuelles Wetter: Görlitz (240m)

6-stündlich | Neueste Meldungen
Ortszeit Temperatur Wetter
Mi, 15.07. 20:00 15.4° C leichter Regen
Mi, 15.07. 14:00 21.1° C wolkig
Mi, 15.07. 8:00 19.0° C leicht bewölkt
Mi, 15.07. 2:00 16.9° C wolkenlos
Di, 14.07. 20:00 22.8° C leicht bewölkt
Di, 14.07. 14:00 24.1° C wolkenlos
Di, 14.07. 8:00 17.5° C wolkenlos
Di, 14.07. 2:00 12.3° C wolkenlos
Ortszeit Temperatur Wetter
Mi, 15.07. 20:30 15.5° C Sprühregen
Mi, 15.07. 20:20 15.5° C Sprühregen
Mi, 15.07. 20:10 15.5° C leichter Regen
Mi, 15.07. 20:00 15.4° C leichter Regen
Mi, 15.07. 19:50 15.4° C leichter Regen
Mi, 15.07. 19:40 15.5° C Sprühregen
Mi, 15.07. 19:30 15.3° C leichter Regen
Mi, 15.07. 19:00 16.1° C leichter Regen
Ortszeit Relative Feuchte Sichtweite
Mi, 15.07. 20:00 96% 12 km
Mi, 15.07. 14:00 44% >70 km
Mi, 15.07. 8:00 55% 55 km
Mi, 15.07. 2:00 62% >70 km
Di, 14.07. 20:00 39% >70 km
Di, 14.07. 14:00 36% 50 km
Di, 14.07. 8:00 57% 45 km
Di, 14.07. 2:00 81% 60 km
Ortszeit Relative Feuchte Sichtweite
Mi, 15.07. 20:30 93% 28 km
Mi, 15.07. 20:20 93% -
Mi, 15.07. 20:10 95% -
Mi, 15.07. 20:00 96% 12 km
Mi, 15.07. 19:50 96% -
Mi, 15.07. 19:40 96% -
Mi, 15.07. 19:30 96% 7 km
Mi, 15.07. 19:00 89% 12 km
Ortszeit Niederschlagsmenge Niederschlagsart
Mi, 15.07. 20:00 3 l/m2 in 12 Std. Regen
Mi, 15.07. 14:00 0.0 l/m2 in 6 Std. -
Mi, 15.07. 8:00 0.0 l/m2 in 12 Std. -
Mi, 15.07. 2:00 0.0 l/m2 in 6 Std. -
Di, 14.07. 20:00 0.0 l/m2 in 12 Std. -
Di, 14.07. 14:00 0.0 l/m2 in 6 Std. -
Di, 14.07. 8:00 0.0 l/m2 in 12 Std. -
Di, 14.07. 2:00 0.0 l/m2 in 6 Std. -
Ortszeit Niederschlagsmenge Niederschlagsart
Mi, 15.07. 20:30 0.1 l/m2 in 1 Std. -
Mi, 15.07. 20:20 keine Meldung -
Mi, 15.07. 20:10 keine Meldung -
Mi, 15.07. 20:00 2.1 l/m2 in 1 Std. Regen
Mi, 15.07. 19:50 keine Meldung -
Mi, 15.07. 19:40 keine Meldung -
Mi, 15.07. 19:30 1.9 l/m2 in 1 Std. -
Mi, 15.07. 19:00 1.1 l/m2 in 1 Std. Regen
Ortszeit Stärke Spitze Richtung
km/h Bft. km/h Grad Sektor
Mi, 15.07. 20:00 6 1 26 290° W
Mi, 15.07. 14:00 13 3 24 160° S
Mi, 15.07. 8:00 14 3 29 230° SW
Mi, 15.07. 2:00 18 3 29 180° S
Di, 14.07. 20:00 14 3 29 170° S
Di, 14.07. 14:00 14 3 32 170° S
Di, 14.07. 8:00 15 3 24 180° S
Di, 14.07. 2:00 6 1 17 170° S
Ortszeit Stärke Spitze Richtung
km/h Bft. km/h Grad Sektor
Mi, 15.07. 20:30 7 2 11 270° W
Mi, 15.07. 20:20 7 2 - 270° W
Mi, 15.07. 20:10 6 1 - 270° W
Mi, 15.07. 20:00 6 1 19 290° W
Mi, 15.07. 19:50 6 1 - 290° W
Mi, 15.07. 19:40 7 2 - 280° W
Mi, 15.07. 19:30 9 2 19 300° NW
Mi, 15.07. 19:00 7 2 22 270° W
Ortszeit Untergrenze Bedeckung Gattung
total tief tief mittel hoch
Mi, 15.07. 20:00 690 m 8/8 2/8 - - -
Mi, 15.07. 14:00 2100 m 8/8 1/8 - - -
Mi, 15.07. 8:00 7200 m 8/8 0/8 - - -
Mi, 15.07. 2:00 - 0/8 0/8 - - -
Di, 14.07. 20:00 9000 m 8/8 0/8 - - -
Di, 14.07. 14:00 - 0/8 0/8 - - -
Di, 14.07. 8:00 - 0/8 0/8 - - -
Di, 14.07. 2:00 - 0/8 0/8 - - -
Ortszeit Bedeckungsgrad in Achtel und Wolkenuntergrenze
Mi, 15.07. 20:30 6(690m) 7(1500m) 8(2700m)
Mi, 15.07. 20:20 6(690m) 7(1500m) 8(2700m)
Mi, 15.07. 20:10 4(600m) 8(3300m) 8(3900m)
Mi, 15.07. 20:00 2(690m) 8(3300m) 8(3600m)
Mi, 15.07. 19:50 2(690m) 8(3300m) 8(3600m)
Mi, 15.07. 19:40 2(750m) 7(2400m) 8(3600m)
Mi, 15.07. 19:30 8(2400m)
Mi, 15.07. 19:00 1(1440m) 8(2400m)
Ortszeit Luftdruck NN (hPa) Tendenz (hPa in 3 Std.)
Mi, 15.07. 20:00 1012 + 0,6
Mi, 15.07. 14:00 1011 + 0,6
Mi, 15.07. 8:00 1011 - 0,2
Mi, 15.07. 2:00 1012 - 0,4
Di, 14.07. 20:00 1013 - 1,0
Di, 14.07. 14:00 1015 - 1,5
Di, 14.07. 8:00 1018 - 0,2
Di, 14.07. 2:00 1020 - 0,5
Ortszeit Luftdruck NN (hPa) Tendenz (hPa in 3 Std.)
Mi, 15.07. 20:30 1012 + 0,7
Mi, 15.07. 20:20 1012 keine Meldung
Mi, 15.07. 20:10 1012 keine Meldung
Mi, 15.07. 20:00 1012 + 0,6
Mi, 15.07. 19:50 1012 keine Meldung
Mi, 15.07. 19:40 1012 keine Meldung
Mi, 15.07. 19:30 1012 + 0,4
Mi, 15.07. 19:00 1012 + 0,6
Ortszeit Schneehöhe (cm)
Mi, 15.07. 20:00 -
Mi, 15.07. 14:00 -
Mi, 15.07. 8:00 -
Mi, 15.07. 2:00 -
Di, 14.07. 20:00 -
Di, 14.07. 14:00 -
Di, 14.07. 8:00 -
Di, 14.07. 2:00 -
Ortszeit Schneehöhe (cm)
Mi, 15.07. 20:30 -
Mi, 15.07. 20:20 -
Mi, 15.07. 20:10 -
Mi, 15.07. 20:00 -
Mi, 15.07. 19:50 -
Mi, 15.07. 19:40 -
Mi, 15.07. 19:30 -
Mi, 15.07. 19:00 -
Link zu dieser Seite / Seite empfehlen

Das Wetter in ...